Time;durP1;ratioP1;P1;durP2;ratioP2;P2;SDS_P1;SDS_P2;PMS_P1;PMS_P2;Temp;Humidity;BMP_temperature;BMP_pressure;BME280_temperature;BME280_humidity;BME280_pressure;Samples;Min_cycle;Max_cycle;Signal;HPM_P1;HPM_P2
2023/04/16 00:00:15;;;;;;;4.38;2.08;;;;;;;11.15;88.27;101128.31;5021773;28;20061;-46
2023/04/16 00:02:40;;;;;;;3.38;1.80;;;;;;;11.12;87.52;101128.22;5007159;28;20048;-57
2023/04/16 00:05:06;;;;;;;5.10;2.00;;;;;;;11.09;87.96;101129.69;4999040;28;20496;-46
2023/04/16 00:07:31;;;;;;;5.68;2.47;;;;;;;11.06;87.92;101126.91;5007074;28;20460;-48
2023/04/16 00:09:57;;;;;;;6.35;2.50;;;;;;;11.07;87.80;101125.81;5004322;28;20480;-52
2023/04/16 00:12:23;;;;;;;7.28;3.55;;;;;;;11.04;87.90;101119.19;5005617;28;20124;-49
2023/04/16 00:14:48;;;;;;;2.75;1.67;;;;;;;11.05;87.67;101118.06;5005206;28;20029;-46
2023/04/16 00:17:14;;;;;;;4.75;2.47;;;;;;;11.04;87.44;101126.47;5009008;28;20032;-48
2023/04/16 00:19:40;;;;;;;4.47;1.65;;;;;;;10.92;88.23;101121.19;5007862;28;20038;-51
2023/04/16 00:22:05;;;;;;;4.57;2.15;;;;;;;10.97;88.18;101116.31;5006484;28;20048;-49
2023/04/16 00:24:51;;;;;;;3.45;1.70;;;;;;;10.92;87.71;101113.09;5005211;28;20045;-46
2023/04/16 00:27:18;;;;;;;7.97;2.30;;;;;;;10.88;87.75;101124.53;4966925;28;20074;-54
2023/04/16 00:29:46;;;;;;;6.13;2.58;;;;;;;10.88;87.90;101121.84;4967720;28;20047;-48
2023/04/16 00:32:11;;;;;;;4.22;1.92;;;;;;;10.76;87.82;101127.28;4967646;28;20383;-50
2023/04/16 00:34:37;;;;;;;4.18;1.85;;;;;;;10.71;88.19;101122.16;4962952;28;20038;-45
2023/04/16 00:37:02;;;;;;;4.68;2.30;;;;;;;10.61;89.00;101122.66;4964425;28;20077;-45
2023/04/16 00:39:28;;;;;;;4.10;1.80;;;;;;;10.66;88.57;101117.03;4967244;28;20193;-48
2023/04/16 00:41:53;;;;;;;4.05;2.97;;;;;;;10.62;89.09;101129.63;4963525;28;20121;-50
2023/04/16 00:44:21;;;;;;;5.85;2.03;;;;;;;10.60;88.92;101128.38;4966054;28;20121;-48
2023/04/16 00:46:47;;;;;;;2.95;1.70;;;;;;;10.65;89.24;101130.81;4951823;28;20041;-45
2023/04/16 00:49:13;;;;;;;3.42;1.77;;;;;;;10.62;88.80;101126.94;4967326;28;20027;-51
2023/04/16 00:51:39;;;;;;;6.75;2.88;;;;;;;10.66;88.65;101127.03;4948068;28;20054;-46
2023/04/16 00:54:05;;;;;;;5.55;1.85;;;;;;;10.61;88.54;101130.72;4967848;28;20548;-50
2023/04/16 00:56:34;;;;;;;3.03;1.52;;;;;;;10.64;88.77;101129.28;4965716;28;20077;-50
2023/04/16 00:59:00;;;;;;;5.28;1.65;;;;;;;10.62;88.68;101124.22;4964493;28;20039;-54
2023/04/16 01:01:25;;;;;;;5.78;2.58;;;;;;;10.64;88.31;101127.38;4966368;28;20417;-52
2023/04/16 01:03:51;;;;;;;7.72;1.77;;;;;;;10.71;88.31;101113.28;4978687;28;20052;-53
2023/04/16 01:06:18;;;;;;;3.88;1.52;;;;;;;10.57;88.29;101118.28;5005807;28;20238;-55
2023/04/16 01:08:47;;;;;;;2.05;1.52;;;;;;;10.54;88.95;101119.78;5006868;28;20029;-53
2023/04/16 01:11:14;;;;;;;4.78;2.33;;;;;;;10.55;88.28;101121.31;5005273;28;20034;-46
2023/04/16 01:13:40;;;;;;;5.25;3.53;;;;;;;10.45;88.86;101113.72;5002926;28;20121;-53
2023/04/16 01:16:08;;;;;;;2.30;1.90;;;;;;;10.45;88.90;101121.81;5009011;28;20030;-53
2023/04/16 01:18:34;;;;;;;4.07;2.45;;;;;;;10.45;88.47;101115.66;5009414;28;20037;-57
2023/04/16 01:21:00;;;;;;;2.42;1.60;;;;;;;10.34;88.67;101120.72;5006994;28;20026;-52
2023/04/16 01:23:25;;;;;;;3.25;2.42;;;;;;;10.23;89.40;101122.34;4994312;28;20042;-48
2023/04/16 01:25:51;;;;;;;7.20;2.45;;;;;;;10.23;90.20;101121.53;5008638;28;20030;-54
2023/04/16 01:28:17;;;;;;;10.02;2.90;;;;;;;10.33;90.07;101126.47;5008302;28;20026;-45
2023/04/16 01:30:43;;;;;;;4.95;1.80;;;;;;;10.34;89.94;101128.00;4991761;28;20038;-54
2023/04/16 01:33:27;;;;;;;3.65;1.60;;;;;;;10.34;89.53;101136.88;5005990;28;20072;-56
2023/04/16 01:35:52;;;;;;;1.70;1.58;;;;;;;10.37;89.71;101130.81;5009020;28;20081;-46
2023/04/16 01:38:18;;;;;;;3.78;1.80;;;;;;;10.33;89.65;101135.31;5006916;28;20038;-53
2023/04/16 01:40:43;;;;;;;2.22;1.30;;;;;;;10.34;89.47;101142.25;5002602;28;20034;-46
2023/04/16 01:43:09;;;;;;;3.13;1.95;;;;;;;10.35;89.98;101141.16;5008895;28;20032;-53
2023/04/16 01:45:34;;;;;;;3.03;1.67;;;;;;;10.35;89.32;101143.06;5001660;28;20034;-49
2023/04/16 01:48:00;;;;;;;3.03;1.38;;;;;;;10.43;88.81;101140.22;5003364;28;20031;-49
2023/04/16 01:50:27;;;;;;;2.60;1.80;;;;;;;10.33;89.40;101145.31;5008259;28;20076;-45
2023/04/16 01:52:52;;;;;;;4.22;2.03;;;;;;;10.36;89.75;101156.16;5003108;28;20056;-53
2023/04/16 01:55:18;;;;;;;2.88;2.05;;;;;;;10.33;89.56;101159.56;5008062;28;20516;-50
2023/04/16 01:57:44;;;;;;;3.42;2.05;;;;;;;10.35;89.81;101156.50;5000899;28;20029;-49
2023/04/16 02:00:11;;;;;;;9.30;2.50;;;;;;;10.36;89.46;101158.06;5005992;28;20030;-53
2023/04/16 02:02:44;;;;;;;4.53;1.70;;;;;;;10.37;89.09;101155.06;5008700;28;20038;-48
2023/04/16 02:05:10;;;;;;;3.65;1.63;;;;;;;10.42;89.56;101154.81;5002193;28;20029;-48
2023/04/16 02:07:35;;;;;;;2.75;1.60;;;;;;;10.43;89.09;101150.22;5003185;28;20029;-48
2023/04/16 02:10:02;;;;;;;3.15;1.90;;;;;;;10.42;88.76;101152.13;5008189;28;20030;-50
2023/04/16 02:12:28;;;;;;;2.35;1.55;;;;;;;10.37;89.39;101162.34;5007366;28;20087;-52
2023/04/16 02:14:54;;;;;;;2.67;1.73;;;;;;;10.35;89.32;101161.91;5000090;28;20377;-53
2023/04/16 02:17:21;;;;;;;3.47;2.20;;;;;;;10.36;89.32;101161.56;5005175;28;20022;-47
2023/04/16 02:19:49;;;;;;;2.30;1.50;;;;;;;10.38;89.08;101163.91;5008172;28;20121;-45
2023/04/16 02:22:15;;;;;;;3.13;2.10;;;;;;;10.46;88.65;101165.66;5009787;28;20033;-46
2023/04/16 02:24:41;;;;;;;3.22;1.95;;;;;;;10.51;88.27;101162.75;5006673;28;20030;-45
2023/04/16 02:27:08;;;;;;;4.00;1.83;;;;;;;10.49;88.40;101173.84;5009228;28;20404;-51
2023/04/16 02:29:34;;;;;;;4.28;2.53;;;;;;;10.48;87.98;101169.59;5009008;28;20032;-49
2023/04/16 02:32:08;;;;;;;4.32;1.90;;;;;;;10.52;88.19;101167.78;4999008;28;20046;-53
2023/04/16 02:34:34;;;;;;;3.35;1.63;;;;;;;10.56;88.29;101171.38;5009340;28;20029;-46
2023/04/16 02:37:00;;;;;;;3.30;2.28;;;;;;;10.59;87.84;101173.38;5000133;28;20038;-53
2023/04/16 02:39:26;;;;;;;4.95;1.88;;;;;;;10.54;87.81;101179.00;4994457;28;20457;-45
2023/04/16 02:41:52;;;;;;;4.18;2.05;;;;;;;10.51;87.58;101173.53;5003693;28;20128;-46
2023/04/16 02:44:18;;;;;;;1.30;1.20;;;;;;;10.53;87.35;101182.06;5009352;28;20034;-47
2023/04/16 02:46:43;;;;;;;6.50;1.67;;;;;;;10.53;87.31;101179.34;5001845;28;20029;-46
2023/04/16 02:49:09;;;;;;;2.20;1.63;;;;;;;10.48;87.80;101180.38;5009623;28;20040;-51
2023/04/16 02:51:34;;;;;;;3.78;1.52;;;;;;;10.46;87.52;101190.69;5010822;28;20405;-47
2023/04/16 02:54:01;;;;;;;3.22;1.95;;;;;;;10.46;87.65;101177.22;4999060;28;20087;-46
2023/04/16 02:56:27;;;;;;;5.50;2.05;;;;;;;10.44;87.57;101184.88;5001643;28;20117;-53
2023/04/16 02:58:52;;;;;;;6.70;1.73;;;;;;;10.47;87.58;101186.88;5004644;28;20117;-47
2023/04/16 03:01:18;;;;;;;3.63;1.88;;;;;;;10.43;87.61;101187.91;5008977;28;20022;-45
2023/04/16 03:03:44;;;;;;;1.95;1.60;;;;;;;10.43;87.22;101185.97;5011126;28;20419;-48
2023/04/16 03:06:09;;;;;;;5.72;2.95;;;;;;;10.42;87.86;101192.50;4997548;28;20038;-45
2023/04/16 03:08:55;;;;;;;4.53;2.72;;;;;;;10.39;87.50;101193.19;5006593;28;20068;-49
2023/04/16 03:11:20;;;;;;;2.25;1.27;;;;;;;10.43;87.74;101194.06;4967927;28;20521;-46
2023/04/16 03:13:46;;;;;;;1.50;1.00;;;;;;;10.44;87.58;101198.34;4953160;28;20082;-54
2023/04/16 03:16:11;;;;;;;3.30;1.85;;;;;;;10.48;87.49;101193.84;4968248;28;20046;-49
2023/04/16 03:18:37;;;;;;;1.85;1.50;;;;;;;10.46;88.24;101196.09;4967529;28;20055;-48
2023/04/16 03:21:03;;;;;;;2.70;1.95;;;;;;;10.45;88.16;101191.03;4968778;28;20042;-48
2023/04/16 03:23:29;;;;;;;3.47;1.83;;;;;;;10.48;88.17;101190.34;4967972;28;20038;-53
2023/04/16 03:25:55;;;;;;;6.13;2.17;;;;;;;10.46;88.67;101188.00;4953664;28;20039;-54
2023/04/16 03:28:20;;;;;;;3.25;2.30;;;;;;;10.57;89.07;101194.47;4954526;28;20573;-53
2023/04/16 03:30:52;;;;;;;10.68;2.00;;;;;;;10.62;88.17;101191.56;4971257;28;20050;-52
2023/04/16 03:33:19;;;;;;;5.35;1.83;;;;;;;10.68;88.21;101195.56;4965502;28;20486;-55
2023/04/16 03:35:45;;;;;;;4.47;2.15;;;;;;;10.66;88.43;101200.53;4959609;28;20634;-48
2023/04/16 03:38:11;;;;;;;5.05;2.03;;;;;;;10.68;88.31;101203.63;4969609;28;20065;-54
2023/04/16 03:40:38;;;;;;;1.60;1.15;;;;;;;10.60;88.53;101193.81;4945224;28;20053;-55
2023/04/16 03:43:03;;;;;;;2.08;1.48;;;;;;;10.64;88.10;101205.47;4953922;28;20043;-50
2023/04/16 03:45:29;;;;;;;5.07;2.20;;;;;;;10.65;88.59;101195.47;4965968;28;20070;-54
2023/04/16 03:47:55;;;;;;;3.05;1.63;;;;;;;10.73;88.35;101208.00;4967478;28;20666;-56
2023/04/16 03:50:23;;;;;;;3.35;1.40;;;;;;;10.74;87.87;101204.97;5019419;28;20048;-52
2023/04/16 03:52:49;;;;;;;6.80;1.65;;;;;;;10.70;88.20;101214.84;4993410;28;20030;-54
2023/04/16 03:55:16;;;;;;;2.42;1.77;;;;;;;10.77;87.91;101207.00;5019629;28;20034;-52
2023/04/16 03:57:41;;;;;;;2.85;1.48;;;;;;;10.80;88.12;101205.53;5007668;28;20020;-46
2023/04/16 04:00:11;;;;;;;3.10;1.83;;;;;;;10.82;87.37;101206.75;5008066;28;20496;-52
2023/04/16 04:03:02;;;;;;;2.10;1.33;;;;;;;10.92;87.32;101212.78;5002763;28;20037;-53
2023/04/16 04:05:28;;;;;;;2.63;1.40;;;;;;;10.92;86.92;101208.16;5022752;28;20095;-50
2023/04/16 04:07:53;;;;;;;2.03;1.08;;;;;;;10.95;87.44;101209.41;5009309;28;20120;-49
2023/04/16 04:10:19;;;;;;;3.35;1.23;;;;;;;10.90;87.12;101205.03;5002190;28;20045;-48
2023/04/16 04:12:45;;;;;;;4.80;2.40;;;;;;;10.85;87.34;101206.06;4998224;28;20559;-51
2023/04/16 04:15:11;;;;;;;2.35;1.38;;;;;;;10.81;87.20;101213.28;5007065;28;20049;-51
2023/04/16 04:17:36;;;;;;;2.85;1.65;;;;;;;10.78;87.72;101210.47;5003662;28;20065;-54
2023/04/16 04:20:05;;;;;;;6.38;1.27;;;;;;;10.86;87.34;101221.09;5012010;28;20437;-48
2023/04/16 04:22:31;;;;;;;2.88;1.90;;;;;;;10.85;87.47;101224.94;5003590;28;20042;-49
2023/04/16 04:24:56;;;;;;;3.92;1.80;;;;;;;10.89;86.97;101225.03;4992951;28;20042;-50
2023/04/16 04:27:25;;;;;;;2.25;1.05;;;;;;;10.97;86.60;101223.31;5007884;28;20156;-49
2023/04/16 04:29:52;;;;;;;1.80;1.45;;;;;;;10.93;86.70;101225.13;5007887;28;20044;-49
2023/04/16 04:32:17;;;;;;;3.10;1.30;;;;;;;10.96;86.51;101227.91;4999744;28;20117;-51
2023/04/16 04:34:44;;;;;;;3.50;2.03;;;;;;;10.80;87.47;101230.53;5007261;28;20060;-52
2023/04/16 04:37:10;;;;;;;4.30;1.90;;;;;;;10.89;87.31;101230.41;4991194;28;20495;-48
2023/04/16 04:39:37;;;;;;;3.60;2.17;;;;;;;10.82;87.18;101235.59;4999045;28;20033;-51
2023/04/16 04:42:03;;;;;;;6.10;1.70;;;;;;;10.84;87.26;101239.53;4998309;28;20686;-48
2023/04/16 04:44:28;;;;;;;3.72;2.15;;;;;;;10.88;87.47;101239.63;5008096;28;20026;-49
2023/04/16 04:46:54;;;;;;;2.60;1.80;;;;;;;10.93;87.11;101230.50;5001690;28;20508;-48
2023/04/16 04:49:19;;;;;;;3.47;1.65;;;;;;;10.89;86.79;101227.72;5018760;28;20401;-56
2023/04/16 04:51:45;;;;;;;4.82;2.22;;;;;;;10.94;87.55;101234.78;5008389;28;20034;-48
2023/04/16 04:54:11;;;;;;;2.13;1.52;;;;;;;10.97;86.78;101239.47;5010210;28;20029;-46
2023/04/16 04:56:36;;;;;;;5.07;2.20;;;;;;;10.99;87.11;101234.53;5001684;28;20057;-52
2023/04/16 04:59:03;;;;;;;3.78;1.92;;;;;;;11.03;87.01;101243.50;5009827;28;20021;-56
2023/04/16 05:01:28;;;;;;;7.82;2.78;;;;;;;11.08;87.21;101249.44;5000204;28;20033;-53
2023/04/16 05:03:54;;;;;;;7.43;2.25;;;;;;;11.13;86.97;101249.19;5009272;28;20037;-51
2023/04/16 05:06:20;;;;;;;3.58;2.10;;;;;;;11.06;86.84;101250.91;5010571;28;20404;-48
2023/04/16 05:08:45;;;;;;;5.88;2.22;;;;;;;11.08;86.90;101252.13;5007120;28;20077;-52
2023/04/16 05:11:11;;;;;;;2.65;1.88;;;;;;;11.08;86.55;101248.63;5004347;28;20045;-48
2023/04/16 05:13:36;;;;;;;3.78;1.65;;;;;;;11.13;86.56;101245.72;5007663;28;20088;-53
2023/04/16 05:16:02;;;;;;;5.80;2.53;;;;;;;11.16;86.93;101253.91;5006240;28;20057;-46
2023/04/16 05:18:27;;;;;;;3.65;1.75;;;;;;;11.20;86.62;101251.28;5009846;28;20033;-46
2023/04/16 05:20:53;;;;;;;3.45;1.98;;;;;;;11.21;87.05;101255.53;5009479;28;20037;-48
2023/04/16 05:23:18;;;;;;;2.92;1.45;;;;;;;11.23;87.25;101254.09;5008901;28;20041;-46
2023/04/16 05:25:44;;;;;;;3.15;1.58;;;;;;;11.19;86.99;101260.53;5000664;28;20125;-46
2023/04/16 05:28:09;;;;;;;2.70;1.25;;;;;;;11.25;87.28;101262.59;5010252;28;20117;-51
2023/04/16 05:30:35;;;;;;;4.00;1.88;;;;;;;11.25;87.50;101267.22;5005442;28;20068;-48
2023/04/16 05:33:00;;;;;;;3.28;2.13;;;;;;;11.29;87.11;101266.19;5006944;28;20048;-48
2023/04/16 05:35:26;;;;;;;3.60;1.42;;;;;;;11.32;87.03;101272.81;5009529;28;20117;-53
2023/04/16 05:37:52;;;;;;;2.08;1.60;;;;;;;11.30;87.11;101280.47;5008438;28;20041;-49
2023/04/16 05:40:17;;;;;;;2.63;2.42;;;;;;;11.29;87.84;101281.56;5008679;28;20037;-49
2023/04/16 05:42:42;;;;;;;3.50;2.25;;;;;;;11.27;87.62;101281.13;5007159;28;20029;-47
2023/04/16 05:45:08;;;;;;;1.48;1.38;;;;;;;11.31;88.30;101280.13;5006704;28;20038;-50
2023/04/16 05:47:34;;;;;;;2.00;1.63;;;;;;;11.37;88.10;101288.72;5009582;28;20072;-55
2023/04/16 05:49:59;;;;;;;4.55;2.22;;;;;;;11.35;87.93;101291.00;5012298;28;20041;-46
2023/04/16 05:52:26;;;;;;;2.00;1.75;;;;;;;11.39;88.15;101299.97;5010485;28;20036;-51
2023/04/16 05:54:52;;;;;;;3.95;2.17;;;;;;;11.38;88.39;101293.78;5002140;28;20105;-52
2023/04/16 05:57:17;;;;;;;5.05;1.45;;;;;;;11.32;88.65;101294.38;5010363;28;20578;-52
2023/04/16 05:59:43;;;;;;;4.80;1.85;;;;;;;11.37;88.76;101296.81;5013140;28;20373;-51
2023/04/16 06:02:08;;;;;;;5.28;2.58;;;;;;;11.36;89.00;101297.97;5005121;28;20735;-52
2023/04/16 06:04:34;;;;;;;3.05;1.98;;;;;;;11.41;89.60;101297.72;5013662;28;20037;-57
2023/04/16 06:07:00;;;;;;;5.15;2.47;;;;;;;11.44;89.25;101299.72;5012518;28;20046;-55
2023/04/16 06:09:26;;;;;;;4.03;2.20;;;;;;;11.48;89.29;101304.06;5008040;28;20041;-56
2023/04/16 06:11:51;;;;;;;5.07;2.42;;;;;;;11.45;89.25;101302.09;5009929;28;20038;-54
2023/04/16 06:14:17;;;;;;;7.03;2.58;;;;;;;11.52;89.19;101298.78;5007853;28;20034;-48
2023/04/16 06:16:42;;;;;;;6.28;2.88;;;;;;;11.59;89.36;101305.13;5007419;28;20041;-52
2023/04/16 06:19:08;;;;;;;3.95;1.98;;;;;;;11.63;89.35;101300.63;5006826;28;20030;-55
2023/04/16 06:21:33;;;;;;;6.97;2.38;;;;;;;11.67;88.92;101306.16;5010081;28;20061;-52
2023/04/16 06:23:59;;;;;;;3.72;1.90;;;;;;;11.63;89.22;101311.41;5008211;28;20492;-51
2023/04/16 06:26:25;;;;;;;6.40;2.20;;;;;;;11.68;89.17;101303.13;5011642;28;20041;-52
2023/04/16 06:28:50;;;;;;;4.13;2.60;;;;;;;11.64;89.60;101299.50;5011938;28;20034;-55
2023/04/16 06:31:16;;;;;;;7.93;1.83;;;;;;;11.69;89.38;101312.00;5007095;28;20050;-53
2023/04/16 06:33:41;;;;;;;3.67;2.35;;;;;;;11.68;89.16;101315.81;4996616;28;20098;-52
2023/04/16 06:36:07;;;;;;;4.15;2.17;;;;;;;11.74;88.92;101320.63;5005060;28;20045;-55
2023/04/16 06:38:32;;;;;;;4.03;1.88;;;;;;;11.78;88.83;101315.31;5011795;28;20389;-52
2023/04/16 06:40:58;;;;;;;4.43;2.45;;;;;;;11.85;89.38;101318.19;5013653;28;20522;-53
2023/04/16 06:43:24;;;;;;;5.32;2.50;;;;;;;11.89;88.38;101320.97;5007759;28;20036;-57
2023/04/16 06:45:50;;;;;;;2.63;1.75;;;;;;;11.89;89.16;101320.97;5010381;28;20040;-57
2023/04/16 06:48:15;;;;;;;4.28;2.08;;;;;;;11.77;89.48;101322.63;5009012;28;20053;-55
2023/04/16 06:50:41;;;;;;;4.13;2.45;;;;;;;11.81;89.48;101322.72;5004426;28;20037;-54
2023/04/16 06:53:06;;;;;;;6.90;3.50;;;;;;;11.89;89.18;101321.75;5001869;28;20034;-56
2023/04/16 06:55:32;;;;;;;3.38;1.95;;;;;;;11.95;88.50;101327.69;4998109;28;20036;-56
2023/04/16 06:57:57;;;;;;;4.15;2.10;;;;;;;12.02;88.90;101334.03;5006695;28;20022;-55
2023/04/16 07:00:23;;;;;;;6.50;3.15;;;;;;;12.00;88.39;101336.31;5003675;28;20030;-52
2023/04/16 07:02:48;;;;;;;3.45;2.40;;;;;;;12.00;88.35;101330.91;5007591;28;20038;-54
2023/04/16 07:05:14;;;;;;;3.75;1.95;;;;;;;12.04;88.88;101326.38;4999971;28;20117;-55
2023/04/16 07:07:39;;;;;;;4.00;2.10;;;;;;;12.05;88.76;101330.66;5003847;28;20030;-53
2023/04/16 07:10:05;;;;;;;4.40;2.30;;;;;;;12.13;88.13;101331.63;5006578;28;20041;-56
2023/04/16 07:12:31;;;;;;;3.90;1.80;;;;;;;12.11;88.33;101331.19;5001759;28;20050;-53
2023/04/16 07:14:57;;;;;;;5.95;2.33;;;;;;;12.20;88.13;101334.50;5009560;28;20048;-55
2023/04/16 07:17:22;;;;;;;3.28;1.95;;;;;;;12.24;87.92;101338.06;5011568;28;20120;-53
2023/04/16 07:19:48;;;;;;;3.20;1.95;;;;;;;12.20;87.75;101339.91;5007069;28;20044;-57
2023/04/16 07:22:13;;;;;;;8.13;2.05;;;;;;;12.24;87.12;101341.56;5008559;28;20065;-54
2023/04/16 07:24:39;;;;;;;4.38;2.35;;;;;;;12.26;87.30;101350.09;5011262;28;20041;-53
2023/04/16 07:27:04;;;;;;;3.15;2.15;;;;;;;12.36;86.88;101352.28;5009614;28;20038;-57
2023/04/16 07:29:30;;;;;;;4.05;2.22;;;;;;;12.24;86.90;101348.88;5008733;28;20029;-55
2023/04/16 07:31:56;;;;;;;2.70;2.08;;;;;;;12.32;87.44;101356.03;5002089;28;20523;-53
2023/04/16 07:34:21;;;;;;;4.28;2.08;;;;;;;12.28;86.96;101345.13;5005449;28;20030;-55
2023/04/16 07:36:47;;;;;;;2.58;1.70;;;;;;;12.34;86.99;101361.84;5010683;28;20048;-55
2023/04/16 07:39:12;;;;;;;4.93;2.53;;;;;;;12.43;87.01;101362.47;5007818;28;20052;-53
2023/04/16 07:41:39;;;;;;;3.58;2.03;;;;;;;12.34;86.97;101359.94;5006244;28;20083;-56
2023/04/16 07:44:05;;;;;;;3.40;2.25;;;;;;;12.41;86.69;101370.13;5002040;28;20079;-55
2023/04/16 07:46:31;;;;;;;4.55;2.42;;;;;;;12.38;86.69;101368.94;5003153;28;20483;-52
2023/04/16 07:48:56;;;;;;;5.05;2.90;;;;;;;12.27;87.10;101381.34;5001760;28;20029;-56
2023/04/16 07:51:22;;;;;;;4.03;2.05;;;;;;;12.34;87.00;101375.38;5001382;28;20042;-52
2023/04/16 07:53:47;;;;;;;3.05;1.80;;;;;;;12.32;87.34;101383.81;5008895;28;20129;-52
2023/04/16 07:56:13;;;;;;;4.88;2.05;;;;;;;12.36;87.25;101373.88;5002852;28;20504;-52
2023/04/16 07:58:39;;;;;;;3.22;2.20;;;;;;;12.39;86.80;101367.78;5008992;28;20041;-49
2023/04/16 08:01:04;;;;;;;2.65;1.73;;;;;;;12.48;86.85;101381.13;5007141;28;20045;-51
2023/04/16 08:03:30;;;;;;;3.53;1.75;;;;;;;12.48;86.68;101375.72;5002930;28;20065;-54
2023/04/16 08:05:55;;;;;;;4.05;1.88;;;;;;;12.52;86.52;101379.28;5024781;28;20037;-50
2023/04/16 08:08:21;;;;;;;4.05;1.85;;;;;;;12.65;85.81;101370.75;5010104;28;20030;-55
2023/04/16 08:10:47;;;;;;;3.63;2.10;;;;;;;12.59;85.80;101388.34;4999201;28;20513;-54
2023/04/16 08:13:12;;;;;;;2.75;2.10;;;;;;;12.59;85.85;101385.66;5004563;28;20485;-52
2023/04/16 08:15:37;;;;;;;4.55;1.90;;;;;;;12.66;85.80;101383.09;5008599;28;20416;-55
2023/04/16 08:18:04;;;;;;;3.28;1.80;;;;;;;12.66;85.33;101390.41;5007027;28;20066;-51
2023/04/16 08:20:30;;;;;;;3.80;1.80;;;;;;;12.73;85.21;101392.50;5002083;28;20045;-52
2023/04/16 08:22:55;;;;;;;4.43;2.10;;;;;;;12.76;84.86;101389.88;5004398;28;20037;-54
2023/04/16 08:25:23;;;;;;;3.28;2.13;;;;;;;12.87;85.26;101399.06;4998459;28;20116;-55
2023/04/16 08:27:50;;;;;;;4.60;1.90;;;;;;;12.97;84.50;101411.25;4991218;28;20121;-56
2023/04/16 08:30:16;;;;;;;5.28;1.50;;;;;;;13.01;84.58;101403.97;4984056;28;20720;-51
2023/04/16 08:32:42;;;;;;;3.25;1.83;;;;;;;12.90;83.94;101411.84;4996397;28;20037;-56
2023/04/16 08:35:08;;;;;;;2.58;1.38;;;;;;;12.98;83.99;101419.00;4988032;28;20042;-53
2023/04/16 08:37:34;;;;;;;2.40;1.73;;;;;;;12.95;83.74;101414.28;4986493;28;20069;-52
2023/04/16 08:40:01;;;;;;;1.33;1.23;;;;;;;13.03;83.35;101417.91;4997393;28;20072;-56
2023/04/16 08:42:39;;;;;;;3.72;2.08;;;;;;;13.09;83.82;101421.94;4996629;28;20034;-56
2023/04/16 08:45:14;;;;;;;3.50;1.58;;;;;;;13.11;83.69;101428.59;4993136;28;20176;-55
2023/04/16 08:47:41;;;;;;;6.53;1.63;;;;;;;13.19;83.63;101424.13;5010977;28;20030;-55
2023/04/16 08:50:10;;;;;;;3.85;2.13;;;;;;;13.21;83.05;101424.53;5001729;28;20045;-52
2023/04/16 08:52:41;;;;;;;3.08;1.77;;;;;;;13.28;83.36;101425.47;5008647;28;20022;-53
2023/04/16 08:55:15;;;;;;;1.48;1.13;;;;;;;13.43;82.93;101423.88;5001309;28;20100;-55
2023/04/16 08:58:12;;;;;;;3.92;1.85;;;;;;;13.24;83.11;101426.56;5006763;28;20068;-53
2023/04/16 09:00:39;;;;;;;3.40;1.38;;;;;;;13.30;82.59;101427.84;4998549;28;20082;-53
2023/04/16 09:03:07;;;;;;;3.58;2.13;;;;;;;13.20;82.85;101426.47;5008032;28;20029;-57
2023/04/16 09:05:33;;;;;;;5.80;2.22;;;;;;;13.22;82.75;101428.84;4999288;28;20547;-56
2023/04/16 09:07:59;;;;;;;3.13;1.73;;;;;;;13.33;83.03;101438.75;5007994;28;20061;-53
2023/04/16 09:10:26;;;;;;;2.60;1.33;;;;;;;13.29;82.67;101435.19;5008275;28;20502;-53
2023/04/16 09:12:54;;;;;;;1.77;1.38;;;;;;;13.27;82.57;101436.66;5009213;28;20048;-53
2023/04/16 09:15:21;;;;;;;2.88;1.60;;;;;;;13.43;82.90;101438.19;4997076;28;20443;-53
2023/04/16 09:17:46;;;;;;;2.00;1.23;;;;;;;13.44;82.92;101441.69;4996565;28;20034;-52
2023/04/16 09:20:14;;;;;;;4.88;1.77;;;;;;;13.45;82.09;101445.97;5008459;28;20034;-55
2023/04/16 09:22:40;;;;;;;4.78;1.55;;;;;;;13.52;81.79;101443.41;5008207;28;20472;-57
2023/04/16 09:25:06;;;;;;;2.95;1.50;;;;;;;13.38;81.96;101445.78;5004824;28;20037;-50
2023/04/16 09:27:31;;;;;;;2.83;1.80;;;;;;;13.45;82.18;101445.97;5007852;28;20489;-54
2023/04/16 09:29:57;;;;;;;6.35;2.17;;;;;;;13.35;82.29;101455.41;5005415;28;20030;-51
2023/04/16 09:32:27;;;;;;;2.78;1.70;;;;;;;13.23;83.04;101455.53;5010653;28;20071;-52
2023/04/16 09:34:58;;;;;;;1.52;1.38;;;;;;;13.20;82.93;101460.88;5008099;28;20060;-54
2023/04/16 09:37:29;;;;;;;4.55;1.55;;;;;;;13.10;83.48;101458.69;5011947;28;20388;-46
2023/04/16 09:40:00;;;;;;;2.42;1.33;;;;;;;13.00;84.06;101461.91;4999368;28;20037;-48
2023/04/16 09:42:28;;;;;;;4.30;2.30;;;;;;;13.06;83.19;101464.03;5011136;28;20396;-49
2023/04/16 09:44:54;;;;;;;4.43;1.80;;;;;;;13.18;83.07;101463.13;5010992;28;20038;-53
2023/04/16 09:47:20;;;;;;;3.45;1.75;;;;;;;13.24;83.11;101469.84;5009892;28;20028;-55
2023/04/16 09:49:46;;;;;;;2.35;1.60;;;;;;;13.20;83.14;101464.34;5005798;28;20053;-47
2023/04/16 09:52:22;;;;;;;3.78;2.22;;;;;;;13.30;82.78;101469.19;5010483;28;20045;-51
2023/04/16 09:54:53;;;;;;;4.55;1.67;;;;;;;13.33;83.16;101471.22;5027988;22;20479;-57
2023/04/16 09:57:19;;;;;;;;;;;;;;;13.20;82.75;101477.84;4984717;28;20508;-57
2023/04/16 09:59:46;;;;;;;3.40;1.88;;;;;;;13.18;82.53;101477.41;4987142;28;19921;-57
2023/04/16 10:02:11;;;;;;;3.78;1.70;;;;;;;13.23;82.77;101476.38;4979676;28;20054;-57
2023/04/16 10:04:45;;;;;;;8.55;1.33;;;;;;;13.19;83.20;101472.81;4987875;28;20511;-56
2023/04/16 10:07:12;;;;;;;3.47;1.77;;;;;;;13.25;82.72;101476.81;4985973;28;20641;-55
2023/04/16 10:09:38;;;;;;;2.90;1.23;;;;;;;13.30;82.75;101484.63;4974012;28;20441;-54
2023/04/16 10:12:07;;;;;;;2.50;1.35;;;;;;;13.34;82.38;101486.31;4943730;28;20138;-55
2023/04/16 10:14:33;;;;;;;2.88;1.40;;;;;;;13.27;82.23;101482.66;4964746;28;20034;-54
2023/04/16 10:16:59;;;;;;;2.60;1.73;;;;;;;13.31;82.46;101488.94;4987482;28;20033;-51
2023/04/16 10:19:26;;;;;;;3.03;1.48;;;;;;;13.39;81.88;101487.97;4987400;28;20109;-56
2023/04/16 10:21:53;;;;;;;3.60;1.40;;;;;;;13.52;81.66;101495.59;4953955;28;20042;-56
2023/04/16 10:24:19;;;;;;;1.48;1.08;;;;;;;13.68;81.24;101503.69;4982985;28;20046;-56
2023/04/16 10:26:46;;;;;;;1.33;1.15;;;;;;;13.68;80.04;101500.97;4984210;28;20102;-56
2023/04/16 10:29:12;;;;;;;3.88;1.25;;;;;;;13.79;80.06;101501.19;4957505;28;20086;-55
2023/04/16 10:31:39;;;;;;;2.15;1.30;;;;;;;13.67;79.73;101498.59;4966866;28;20048;-51
2023/04/16 10:34:07;;;;;;;2.50;1.35;;;;;;;13.63;79.59;101506.66;4973843;28;20134;-54
2023/04/16 10:36:36;;;;;;;2.33;1.38;;;;;;;13.63;79.33;101503.19;4983799;28;20481;-54
2023/04/16 10:39:02;;;;;;;1.63;1.50;;;;;;;13.69;79.32;101507.94;4977726;28;20042;-53
2023/04/16 10:41:27;;;;;;;2.15;1.30;;;;;;;13.74;79.56;101510.38;4973290;28;20062;-54
2023/04/16 10:44:08;;;;;;;0.82;0.82;;;;;;;13.78;80.34;101513.16;4976506;28;20170;-56
2023/04/16 10:46:37;;;;;;;2.22;1.15;;;;;;;13.80;80.96;101511.66;4988112;28;20034;-56
2023/04/16 10:49:23;;;;;;;2.47;1.38;;;;;;;13.75;81.84;101511.16;4973501;28;20501;-53
2023/04/16 10:51:51;;;;;;;1.95;1.25;;;;;;;13.68;82.25;101511.81;4973390;28;20505;-55
2023/04/16 10:54:17;;;;;;;1.67;1.10;;;;;;;13.54;83.13;101514.19;4977313;28;20049;-52
2023/04/16 10:56:43;;;;;;;3.92;2.25;;;;;;;13.41;83.44;101518.16;4976622;28;20497;-52
2023/04/16 10:59:10;;;;;;;2.50;1.25;;;;;;;13.34;83.53;101507.16;4969640;28;20378;-50
2023/04/16 11:01:36;;;;;;;3.70;1.55;;;;;;;13.26;83.68;101517.03;4981181;28;20041;-49
2023/04/16 11:04:20;;;;;;;1.77;1.15;;;;;;;13.27;84.14;101512.41;4965163;28;20069;-56
2023/04/16 11:07:18;;;;;;;2.72;1.35;;;;;;;13.40;83.46;101516.56;4969244;28;20034;-50
2023/04/16 11:09:50;;;;;;;1.05;0.98;;;;;;;13.27;84.01;101529.44;4976398;28;20485;-51
2023/04/16 11:12:21;;;;;;;2.65;1.98;;;;;;;13.27;83.93;101524.03;4984201;28;20030;-52
2023/04/16 11:14:52;;;;;;;2.63;1.60;;;;;;;13.24;84.19;101521.25;4976310;28;20687;-51
2023/04/16 11:17:19;;;;;;;2.42;1.48;;;;;;;13.24;84.99;101518.53;4972414;28;20041;-54
2023/04/16 11:19:48;;;;;;;1.20;0.95;;;;;;;13.15;84.83;101521.41;4983412;28;20673;-49
2023/04/16 11:22:16;;;;;;;1.92;1.27;;;;;;;13.29;84.53;101523.66;4983794;28;20800;-52